createdAt,value
2017-08-26T00:01:56.209Z,15.20
2017-08-26T00:04:23.685Z,18.90
2017-08-26T00:06:51.161Z,14.00
2017-08-26T00:09:18.669Z,16.63
2017-08-26T00:11:46.149Z,24.53
2017-08-26T00:14:13.625Z,14.50
2017-08-26T00:16:41.445Z,15.40
2017-08-26T00:19:08.925Z,18.20
2017-08-26T00:21:36.401Z,15.40
2017-08-26T00:24:03.896Z,15.77
2017-08-26T00:26:31.377Z,16.03
2017-08-26T00:28:59.621Z,16.67
2017-08-26T00:31:27.118Z,19.53
2017-08-26T00:33:54.598Z,21.73
2017-08-26T00:36:22.077Z,14.67
2017-08-26T00:38:49.833Z,16.77
2017-08-26T00:41:17.304Z,17.20
2017-08-26T00:43:44.781Z,15.40
2017-08-26T00:46:12.285Z,21.00
2017-08-26T00:48:39.762Z,16.10
2017-08-26T00:51:07.241Z,25.00
2017-08-26T00:53:34.733Z,18.93
2017-08-26T00:56:02.973Z,19.03
2017-08-26T00:58:30.668Z,16.03
2017-08-26T01:00:58.164Z,21.00
2017-08-26T01:03:25.641Z,17.07
2017-08-26T01:05:53.121Z,17.07
2017-08-26T01:08:20.619Z,14.93
2017-08-26T01:10:48.103Z,22.00
2017-08-26T01:13:15.585Z,18.97
2017-08-26T01:15:43.170Z,15.50
2017-08-26T01:18:11.419Z,14.77
2017-08-26T01:20:38.901Z,15.60
2017-08-26T01:23:06.394Z,14.77
2017-08-26T01:25:33.874Z,17.40
2017-08-26T01:28:01.369Z,17.63
2017-08-26T01:30:28.869Z,17.03
2017-08-26T01:32:56.345Z,16.43
2017-08-26T01:35:23.841Z,16.80
2017-08-26T01:37:51.341Z,18.03
2017-08-26T01:40:18.817Z,18.43
2017-08-26T01:42:46.467Z,15.70
2017-08-26T01:45:14.361Z,19.47
2017-08-26T01:47:42.097Z,14.97
2017-08-26T01:50:09.577Z,15.50
2017-08-26T01:52:37.269Z,20.23
2017-08-26T01:55:04.745Z,18.03
2017-08-26T01:57:32.222Z,31.90
2017-08-26T01:59:59.722Z,19.83
2017-08-26T02:02:27.193Z,26.03
2017-08-26T02:04:54.802Z,30.03
2017-08-26T02:07:22.321Z,20.20
2017-08-26T02:09:49.801Z,19.67
2017-08-26T02:12:17.273Z,18.57
2017-08-26T02:14:45.537Z,18.70
2017-08-26T02:17:13.033Z,19.27
2017-08-26T02:19:40.509Z,17.70
2017-08-26T02:22:08.006Z,18.53
2017-08-26T02:24:35.481Z,22.93
2017-08-26T02:27:02.953Z,18.83
2017-08-26T02:29:30.666Z,16.87
2017-08-26T02:31:58.150Z,15.67
2017-08-26T02:34:25.629Z,20.87
2017-08-26T02:36:53.129Z,21.23
2017-08-26T02:39:20.605Z,23.50
2017-08-26T02:41:48.183Z,21.10
2017-08-26T02:44:16.449Z,16.53
2017-08-26T02:46:43.921Z,23.10
2017-08-26T02:49:11.394Z,21.37
2017-08-26T02:51:38.903Z,18.53
2017-08-26T02:54:06.381Z,16.53
2017-08-26T02:56:33.857Z,14.33
2017-08-26T02:59:01.359Z,14.20
2017-08-26T03:01:28.836Z,14.20
2017-08-26T03:03:57.344Z,15.67
2017-08-26T03:06:24.842Z,18.50
2017-08-26T03:08:52.430Z,16.17
2017-08-26T03:11:19.951Z,16.37
2017-08-26T03:13:47.449Z,21.40
2017-08-26T03:16:14.928Z,19.70
2017-08-26T03:18:42.404Z,15.50
2017-08-26T03:21:09.909Z,15.00
2017-08-26T03:23:37.384Z,15.93
2017-08-26T03:26:04.858Z,19.60
2017-08-26T03:28:32.578Z,19.07
2017-08-26T03:31:00.854Z,19.07
2017-08-26T03:33:28.338Z,16.40
2017-08-26T03:35:55.841Z,13.60
2017-08-26T03:38:23.339Z,20.83
2017-08-26T03:40:51.794Z,15.33
2017-08-26T03:43:19.293Z,16.03
2017-08-26T03:45:46.769Z,15.87
2017-08-26T03:48:14.538Z,16.17
2017-08-26T03:50:42.044Z,15.77
2017-08-26T03:53:09.522Z,15.83
2017-08-26T03:55:37.001Z,21.00
2017-08-26T03:58:04.500Z,14.90
2017-08-26T04:00:31.976Z,17.20
2017-08-26T04:02:59.456Z,23.13
2017-08-26T04:05:27.128Z,14.27
2017-08-26T04:07:54.608Z,17.63
2017-08-26T04:10:22.086Z,18.03
2017-08-26T04:12:49.589Z,14.73
2017-08-26T04:15:17.068Z,16.73
2017-08-26T04:17:44.549Z,13.33
2017-08-26T04:20:12.045Z,16.20
2017-08-26T04:22:39.517Z,16.33
2017-08-26T04:25:07.005Z,19.50
2017-08-26T04:27:34.913Z,18.27
2017-08-26T04:30:02.397Z,16.70
2017-08-26T04:32:29.974Z,14.43
2017-08-26T04:34:57.473Z,21.27
2017-08-26T04:37:24.953Z,17.47
2017-08-26T04:39:53.193Z,14.70
2017-08-26T04:42:20.688Z,21.33
2017-08-26T04:44:48.185Z,15.00
2017-08-26T04:47:15.660Z,15.07
2017-08-26T04:49:43.157Z,13.57
2017-08-26T04:52:11.398Z,13.57
2017-08-26T04:54:38.873Z,17.80
2017-08-26T04:57:06.378Z,15.27
2017-08-26T04:59:33.861Z,18.07
2017-08-26T05:02:01.337Z,14.43
2017-08-26T05:04:28.846Z,14.17
2017-08-26T05:06:56.381Z,14.70
2017-08-26T05:09:23.929Z,18.40
2017-08-26T05:11:51.429Z,14.90
2017-08-26T05:14:18.910Z,13.63
2017-08-26T05:16:46.406Z,15.50
2017-08-26T05:19:13.915Z,17.90
2017-08-26T05:21:41.393Z,15.20
2017-08-26T05:24:08.926Z,15.27
2017-08-26T05:26:36.421Z,14.03
2017-08-26T05:29:04.146Z,12.17
2017-08-26T05:31:31.729Z,12.77
2017-08-26T05:33:59.353Z,22.47
2017-08-26T05:36:26.861Z,13.40
2017-08-26T05:38:54.337Z,13.10
2017-08-26T05:41:22.601Z,12.43
2017-08-26T05:43:50.080Z,12.57
2017-08-26T05:46:17.581Z,12.30
2017-08-26T05:48:45.333Z,12.77
2017-08-26T05:51:12.830Z,12.57
2017-08-26T05:53:40.308Z,10.43
2017-08-26T05:56:07.785Z,10.80
2017-08-26T05:58:35.285Z,12.17
2017-08-26T06:01:02.757Z,10.93
2017-08-26T06:03:30.249Z,11.70
2017-08-26T06:05:57.722Z,10.60
2017-08-26T06:08:25.213Z,10.87
2017-08-26T06:10:52.693Z,19.50
2017-08-26T06:13:20.187Z,11.00
2017-08-26T06:15:47.673Z,11.03
2017-08-26T06:18:15.930Z,14.63
2017-08-26T06:20:43.701Z,11.90
2017-08-26T06:23:11.194Z,10.23
2017-08-26T06:25:38.669Z,12.03
2017-08-26T06:28:06.152Z,10.20
2017-08-26T06:30:33.641Z,11.07
2017-08-26T06:33:01.117Z,10.07
2017-08-26T06:35:28.613Z,11.43
2017-08-26T06:37:57.888Z,27.90
2017-08-26T06:40:27.061Z,12.90
2017-08-26T06:42:54.701Z,10.20
2017-08-26T06:45:22.173Z,10.13
2017-08-26T06:47:49.665Z,10.57
2017-08-26T06:50:17.138Z,10.60
2017-08-26T06:52:44.609Z,9.67
2017-08-26T06:55:12.096Z,10.70
2017-08-26T06:57:40.333Z,12.90
2017-08-26T07:00:09.256Z,12.57
2017-08-26T07:02:36.746Z,9.30
2017-08-26T07:05:04.241Z,12.90
2017-08-26T07:07:32.029Z,8.70
2017-08-26T07:09:59.501Z,10.13
2017-08-26T07:12:26.993Z,16.07
2017-08-26T07:14:54.502Z,13.40
2017-08-26T07:17:21.993Z,8.63
2017-08-26T07:19:49.461Z,8.23
2017-08-26T07:22:16.933Z,7.20
2017-08-26T07:24:45.189Z,8.20
2017-08-26T07:27:12.681Z,6.70
2017-08-26T07:29:40.154Z,8.53
2017-08-26T07:32:07.621Z,8.57
2017-08-26T07:34:35.119Z,8.73
2017-08-26T07:37:02.593Z,6.70
2017-08-26T07:39:30.086Z,7.50
2017-08-26T07:41:57.557Z,7.33
2017-08-26T07:44:25.025Z,7.50
2017-08-26T07:46:52.513Z,7.27
2017-08-26T07:49:19.989Z,6.93
2017-08-26T07:51:47.481Z,7.80
2017-08-26T07:54:14.952Z,6.83
2017-08-26T07:56:42.545Z,9.43
2017-08-26T07:59:10.781Z,7.23
2017-08-26T08:01:38.268Z,7.67
2017-08-26T08:04:05.737Z,5.70
2017-08-26T08:06:33.230Z,5.93
2017-08-26T08:09:00.701Z,6.50
2017-08-26T08:11:28.169Z,6.50
2017-08-26T08:13:55.661Z,5.73
2017-08-26T08:16:23.133Z,5.50
2017-08-26T08:18:50.621Z,5.60
2017-08-26T08:21:18.094Z,5.40
2017-08-26T08:23:45.581Z,5.37
2017-08-26T08:26:13.053Z,5.57
2017-08-26T08:28:41.310Z,4.83
2017-08-26T08:31:08.882Z,5.13
2017-08-26T08:33:37.141Z,5.50
2017-08-26T08:36:04.637Z,6.03
2017-08-26T08:38:32.101Z,4.90
2017-08-26T08:40:59.593Z,4.70
2017-08-26T08:43:27.065Z,4.53
2017-08-26T08:45:54.560Z,9.97
2017-08-26T08:48:22.801Z,4.93
2017-08-26T08:50:50.275Z,4.07
2017-08-26T08:53:18.534Z,4.57
2017-08-26T08:55:46.020Z,4.40
2017-08-26T08:58:13.525Z,5.27
2017-08-26T09:00:41.274Z,4.70
2017-08-26T09:03:08.746Z,5.10
2017-08-26T09:05:36.246Z,5.17
2017-08-26T09:08:04.485Z,3.80
2017-08-26T09:10:31.957Z,7.47
2017-08-26T09:12:59.448Z,4.73
2017-08-26T09:15:26.918Z,5.80
2017-08-26T09:17:54.406Z,5.00
2017-08-26T09:20:21.877Z,5.20
2017-08-26T09:22:49.365Z,4.93
2017-08-26T09:25:16.842Z,5.80
2017-08-26T09:27:44.315Z,5.60
2017-08-26T09:30:11.805Z,6.00
2017-08-26T09:32:39.278Z,4.23
2017-08-26T09:35:06.777Z,4.53
2017-08-26T09:37:34.249Z,5.30
2017-08-26T09:40:01.718Z,5.03
2017-08-26T09:42:29.209Z,4.20
2017-08-26T09:44:56.680Z,4.70
2017-08-26T09:47:24.937Z,11.60
2017-08-26T09:49:53.173Z,6.97
2017-08-26T09:52:20.665Z,5.90
2017-08-26T09:54:48.185Z,5.47
2017-08-26T09:57:15.657Z,5.47
2017-08-26T09:59:43.149Z,5.13
2017-08-26T10:02:10.622Z,9.57
2017-08-26T10:04:38.881Z,5.17
2017-08-26T10:07:06.357Z,11.43
2017-08-26T10:09:34.613Z,5.20
2017-08-26T10:12:02.083Z,4.60
2017-08-26T10:14:29.598Z,6.10
2017-08-26T10:16:57.074Z,5.30
2017-08-26T10:19:24.545Z,6.90
2017-08-26T10:21:52.037Z,6.40
2017-08-26T10:24:19.508Z,6.47
2017-08-26T10:26:47.002Z,10.50
2017-08-26T10:29:14.473Z,6.40
2017-08-26T10:31:41.945Z,5.47
2017-08-26T10:34:09.433Z,7.20
2017-08-26T10:36:36.906Z,4.97
2017-08-26T10:39:04.397Z,5.67
2017-08-26T10:41:31.869Z,5.00
2017-08-26T10:44:00.129Z,6.37
2017-08-26T10:46:27.618Z,6.03
2017-08-26T10:48:55.094Z,15.97
2017-08-26T10:51:22.861Z,6.60
2017-08-26T10:53:50.329Z,6.03
2017-08-26T10:56:18.701Z,5.20
2017-08-26T10:58:46.173Z,5.57
2017-08-26T11:01:13.666Z,5.80
2017-08-26T11:03:41.136Z,5.60
2017-08-26T11:06:08.610Z,5.20
2017-08-26T11:08:36.101Z,5.10
2017-08-26T11:11:03.785Z,5.57
2017-08-26T11:13:31.282Z,5.20
2017-08-26T11:15:58.761Z,5.00
2017-08-26T11:18:26.236Z,7.70
2017-08-26T11:20:53.724Z,6.93
2017-08-26T11:23:21.985Z,6.30
2017-08-26T11:25:49.705Z,5.33
2017-08-26T11:28:17.186Z,5.73
2017-08-26T11:30:44.679Z,5.33
2017-08-26T11:33:12.149Z,5.50
2017-08-26T11:35:39.617Z,5.73
2017-08-26T11:38:07.153Z,5.40
2017-08-26T11:40:34.646Z,6.37
2017-08-26T11:43:02.133Z,5.20
2017-08-26T11:45:29.624Z,7.83
2017-08-26T11:47:57.120Z,5.30
2017-08-26T11:50:24.589Z,5.17
2017-08-26T11:52:52.075Z,5.77
2017-08-26T11:55:19.586Z,5.60
2017-08-26T11:57:47.061Z,6.03
2017-08-26T12:00:14.558Z,6.60
2017-08-26T12:02:42.270Z,5.53
2017-08-26T12:05:09.761Z,5.23
2017-08-26T12:07:37.233Z,8.07
2017-08-26T12:10:05.505Z,7.10
2017-08-26T12:12:32.978Z,5.20
2017-08-26T12:15:01.237Z,5.77
2017-08-26T12:17:28.952Z,5.60
2017-08-26T12:19:56.453Z,5.90
2017-08-26T12:22:23.925Z,6.17
2017-08-26T12:24:52.181Z,7.40
2017-08-26T12:27:19.654Z,5.97
2017-08-26T12:29:47.913Z,5.70
2017-08-26T12:32:15.741Z,5.97
2017-08-26T12:34:43.242Z,7.43
2017-08-26T12:37:10.709Z,7.47
2017-08-26T12:39:38.181Z,6.43
2017-08-26T12:42:05.685Z,8.30
2017-08-26T12:44:33.157Z,5.83
2017-08-26T12:47:00.629Z,6.03
2017-08-26T12:49:28.127Z,12.23
2017-08-26T12:51:55.611Z,6.07
2017-08-26T12:54:23.105Z,6.43
2017-08-26T12:56:50.589Z,5.33
2017-08-26T12:59:18.081Z,5.97
2017-08-26T13:01:45.549Z,6.67
2017-08-26T13:04:13.289Z,6.30
2017-08-26T13:06:40.785Z,6.30
2017-08-26T13:09:08.260Z,5.60
2017-08-26T13:11:36.521Z,5.53
2017-08-26T13:14:03.997Z,6.57
2017-08-26T13:16:32.344Z,6.83
2017-08-26T13:19:00.077Z,6.87
2017-08-26T13:21:27.554Z,5.80
2017-08-26T13:23:55.046Z,7.00
2017-08-26T13:26:23.285Z,5.27
2017-08-26T13:28:50.777Z,9.10
2017-08-26T13:31:19.016Z,5.83
2017-08-26T13:33:46.485Z,6.37
2017-08-26T13:36:13.980Z,6.77
2017-08-26T13:38:41.449Z,5.87
2017-08-26T13:41:08.942Z,6.77
2017-08-26T13:43:36.418Z,7.10
2017-08-26T13:46:03.889Z,9.37
2017-08-26T13:48:31.397Z,10.50
2017-08-26T13:50:59.162Z,7.17
2017-08-26T13:53:26.909Z,7.43
2017-08-26T13:55:54.386Z,7.03
2017-08-26T13:58:21.881Z,6.60
2017-08-26T14:00:49.352Z,6.57
2017-08-26T14:03:16.826Z,6.17
2017-08-26T14:05:44.332Z,6.77
2017-08-26T14:08:11.811Z,9.83
2017-08-26T14:10:39.313Z,7.57
2017-08-26T14:13:06.833Z,7.17
2017-08-26T14:15:34.541Z,6.73
2017-08-26T14:18:02.034Z,9.03
2017-08-26T14:20:29.535Z,15.20
2017-08-26T14:22:57.013Z,12.67
2017-08-26T14:25:24.491Z,9.30
2017-08-26T14:27:51.991Z,7.30
2017-08-26T14:30:20.253Z,7.17
2017-08-26T14:32:47.729Z,13.63
2017-08-26T14:35:15.222Z,14.10
2017-08-26T14:37:43.483Z,11.20
2017-08-26T14:40:11.000Z,7.97
2017-08-26T14:42:38.520Z,6.20
2017-08-26T14:45:05.997Z,13.03
2017-08-26T14:47:33.553Z,8.23
2017-08-26T14:50:01.025Z,6.77
2017-08-26T14:52:28.532Z,13.83
2017-08-26T14:54:56.001Z,8.40
2017-08-26T14:57:23.474Z,8.13
2017-08-26T14:59:53.977Z,7.37
2017-08-26T15:02:26.297Z,7.93
2017-08-26T15:04:53.810Z,7.60
2017-08-26T15:07:21.288Z,7.80
2017-08-26T15:09:48.785Z,15.50
2017-08-26T15:12:17.027Z,7.67
2017-08-26T15:14:44.517Z,7.20
2017-08-26T15:17:12.763Z,10.70
2017-08-26T15:19:40.256Z,8.50
2017-08-26T15:22:08.501Z,8.07
2017-08-26T15:24:36.001Z,8.43
2017-08-26T15:27:03.513Z,9.43
2017-08-26T15:29:31.041Z,9.90
2017-08-26T15:31:58.532Z,8.60
2017-08-26T15:34:26.004Z,9.07
2017-08-26T15:36:53.495Z,7.80
2017-08-26T15:39:20.973Z,8.20
2017-08-26T15:41:48.457Z,7.13
2017-08-26T15:44:15.945Z,7.87
2017-08-26T15:46:43.413Z,7.90
2017-08-26T15:49:10.907Z,9.10
2017-08-26T15:51:38.446Z,8.43
2017-08-26T15:54:06.154Z,7.83
2017-08-26T15:56:33.630Z,9.07
2017-08-26T15:59:01.121Z,13.93
2017-08-26T16:01:28.589Z,8.20
2017-08-26T16:03:56.081Z,7.80
2017-08-26T16:06:23.553Z,7.03
2017-08-26T16:08:51.066Z,7.53
2017-08-26T16:11:18.545Z,7.77
2017-08-26T16:13:46.026Z,8.67
2017-08-26T16:16:13.521Z,8.00
2017-08-26T16:18:41.004Z,12.00
2017-08-26T16:21:08.708Z,14.70
2017-08-26T16:23:36.977Z,9.87
2017-08-26T16:26:04.474Z,19.23
2017-08-26T16:28:31.942Z,9.93
2017-08-26T16:30:59.702Z,8.00
2017-08-26T16:33:27.174Z,7.97
2017-08-26T16:35:54.661Z,8.77
2017-08-26T16:38:22.141Z,15.43
2017-08-26T16:40:50.465Z,8.57
2017-08-26T16:43:17.933Z,9.13
2017-08-26T16:45:45.408Z,8.67
2017-08-26T16:48:12.900Z,9.77
2017-08-26T16:50:40.381Z,17.13
2017-08-26T16:53:07.869Z,10.97
2017-08-26T16:55:35.345Z,13.60
2017-08-26T16:58:02.843Z,9.20
2017-08-26T17:00:30.321Z,10.10
2017-08-26T17:02:57.809Z,7.47
2017-08-26T17:05:25.281Z,9.50
2017-08-26T17:07:53.521Z,8.20
2017-08-26T17:10:21.017Z,11.33
2017-08-26T17:12:48.565Z,11.23
2017-08-26T17:15:16.060Z,11.40
2017-08-26T17:17:43.532Z,8.17
2017-08-26T17:20:14.962Z,11.73
2017-08-26T17:22:42.613Z,8.13
2017-08-26T17:25:10.106Z,9.30
2017-08-26T17:27:37.573Z,8.73
2017-08-26T17:30:05.094Z,10.20
2017-08-26T17:32:32.715Z,8.93
2017-08-26T17:35:00.235Z,9.13
2017-08-26T17:37:27.713Z,9.20
2017-08-26T17:39:55.205Z,8.23
2017-08-26T17:42:23.446Z,9.90
2017-08-26T17:44:50.917Z,8.73
2017-08-26T17:47:18.421Z,8.40
2017-08-26T17:49:45.897Z,8.80
2017-08-26T17:52:13.393Z,12.10
2017-08-26T17:54:40.886Z,8.40
2017-08-26T17:57:08.352Z,15.10
2017-08-26T17:59:35.849Z,9.77
2017-08-26T18:02:03.416Z,24.30
2017-08-26T18:04:30.913Z,8.70
2017-08-26T18:06:58.438Z,11.40
2017-08-26T18:09:25.909Z,8.83
2017-08-26T18:11:54.177Z,11.73
2017-08-26T18:14:21.658Z,8.60
2017-08-26T18:16:49.153Z,9.70
2017-08-26T18:19:16.624Z,11.23
2017-08-26T18:21:44.098Z,10.27
2017-08-26T18:24:11.595Z,12.60
2017-08-26T18:26:39.081Z,16.77
2017-08-26T18:29:06.573Z,13.97
2017-08-26T18:31:34.056Z,11.57
2017-08-26T18:34:01.562Z,11.20
2017-08-26T18:36:29.082Z,10.30
2017-08-26T18:38:57.389Z,11.13
2017-08-26T18:41:24.889Z,14.00
2017-08-26T18:43:53.133Z,10.83
2017-08-26T18:46:20.605Z,11.77
2017-08-26T18:48:48.154Z,23.70
2017-08-26T18:51:15.640Z,12.00
2017-08-26T18:53:43.901Z,14.03
2017-08-26T18:56:11.387Z,14.53
2017-08-26T18:58:39.669Z,12.53
2017-08-26T19:01:07.166Z,11.50
2017-08-26T19:03:34.653Z,13.30
2017-08-26T19:06:02.195Z,13.37
2017-08-26T19:08:29.729Z,22.47
2017-08-26T19:10:57.210Z,19.80
2017-08-26T19:13:24.714Z,13.50
2017-08-26T19:15:52.194Z,14.27
2017-08-26T19:18:19.701Z,14.10
2017-08-26T19:20:47.177Z,14.87
2017-08-26T19:23:14.673Z,14.17
2017-08-26T19:25:42.951Z,17.00
2017-08-26T19:28:10.433Z,24.80
2017-08-26T19:30:37.929Z,19.03
2017-08-26T19:33:05.413Z,14.80
2017-08-26T19:35:32.917Z,13.60
2017-08-26T19:38:00.434Z,12.37
2017-08-26T19:40:27.921Z,13.73
2017-08-26T19:42:55.466Z,14.40
2017-08-26T19:45:22.953Z,14.67
2017-08-26T19:47:51.193Z,15.53
2017-08-26T19:50:18.693Z,14.67
2017-08-26T19:52:46.493Z,15.53
2017-08-26T19:55:13.997Z,15.70
2017-08-26T19:57:41.473Z,15.30
2017-08-26T20:00:09.717Z,20.90
2017-08-26T20:02:37.213Z,16.80
2017-08-26T20:05:04.696Z,24.00
2017-08-26T20:07:32.198Z,23.37
2017-08-26T20:09:59.685Z,20.97
2017-08-26T20:12:27.173Z,19.73
2017-08-26T20:14:54.670Z,31.00
2017-08-26T20:17:22.162Z,22.97
2017-08-26T20:19:49.669Z,17.63
2017-08-26T20:22:17.156Z,17.00
2017-08-26T20:24:44.957Z,17.50
2017-08-26T20:27:12.453Z,26.43
2017-08-26T20:29:39.934Z,15.53
2017-08-26T20:32:07.428Z,15.27
2017-08-26T20:34:34.912Z,17.70
2017-08-26T20:37:02.389Z,16.20
2017-08-26T20:39:29.897Z,17.50
2017-08-26T20:41:57.376Z,16.40
2017-08-26T20:44:24.878Z,15.63
2017-08-26T20:46:53.117Z,16.80
2017-08-26T20:49:20.605Z,20.50
2017-08-26T20:51:48.113Z,21.83
2017-08-26T20:54:15.594Z,21.43
2017-08-26T20:56:43.178Z,28.77
2017-08-26T20:59:10.661Z,22.50
2017-08-26T21:01:38.444Z,23.57
2017-08-26T21:04:05.943Z,27.90
2017-08-26T21:06:33.442Z,25.67
2017-08-26T21:09:00.946Z,23.13
2017-08-26T21:11:28.453Z,30.33
2017-08-26T21:13:55.933Z,31.57
2017-08-26T21:16:23.429Z,21.60
2017-08-26T21:18:50.905Z,41.23
2017-08-26T21:21:19.210Z,29.57
2017-08-26T21:23:46.685Z,34.00
2017-08-26T21:26:14.166Z,23.80
2017-08-26T21:28:41.666Z,28.40
2017-08-26T21:31:09.910Z,24.17
2017-08-26T21:33:38.193Z,23.70
2017-08-26T21:36:05.673Z,21.50
2017-08-26T21:38:33.157Z,21.73
2017-08-26T21:41:00.657Z,21.30
2017-08-26T21:43:28.134Z,25.07
2017-08-26T21:45:55.638Z,18.23
2017-08-26T21:48:23.113Z,13.93
2017-08-26T21:50:50.602Z,15.97
2017-08-26T21:53:18.101Z,15.13
2017-08-26T21:55:46.454Z,23.37
2017-08-26T21:58:13.955Z,18.27
2017-08-26T22:00:41.449Z,22.23
2017-08-26T22:03:09.697Z,25.13
2017-08-26T22:05:37.432Z,30.03
2017-08-26T22:08:04.906Z,22.93
2017-08-26T22:10:32.401Z,22.70
2017-08-26T22:12:59.881Z,21.47
2017-08-26T22:15:27.361Z,29.13
2017-08-26T22:17:54.865Z,23.57
2017-08-26T22:20:22.349Z,19.23
2017-08-26T22:22:49.845Z,24.30
2017-08-26T22:25:17.325Z,28.60
2017-08-26T22:27:44.805Z,21.03
2017-08-26T22:30:13.073Z,26.87
2017-08-26T22:32:40.553Z,25.30
2017-08-26T22:35:08.082Z,18.57
2017-08-26T22:37:35.557Z,24.00
2017-08-26T22:40:03.039Z,18.57
2017-08-26T22:42:30.535Z,17.77
2017-08-26T22:44:58.489Z,14.83
2017-08-26T22:47:25.997Z,15.70
2017-08-26T22:49:54.242Z,16.40
2017-08-26T22:52:21.973Z,16.37
2017-08-26T22:54:49.514Z,15.67
2017-08-26T22:57:16.997Z,17.13
2017-08-26T22:59:44.497Z,16.00
2017-08-26T23:02:12.742Z,17.47
2017-08-26T23:04:40.217Z,16.80
2017-08-26T23:07:07.941Z,21.33
2017-08-26T23:09:35.434Z,20.77
2017-08-26T23:12:03.707Z,23.07
2017-08-26T23:14:31.438Z,22.67
2017-08-26T23:16:58.914Z,15.63
2017-08-26T23:19:26.409Z,18.93
2017-08-26T23:21:54.658Z,25.83
2017-08-26T23:24:22.161Z,20.23
2017-08-26T23:26:49.641Z,22.13
2017-08-26T23:29:17.118Z,28.30
2017-08-26T23:31:44.617Z,22.70
2017-08-26T23:34:12.862Z,23.67
2017-08-26T23:36:40.599Z,27.70
2017-08-26T23:39:08.077Z,20.70
2017-08-26T23:41:35.554Z,24.20
2017-08-26T23:44:03.045Z,20.70
2017-08-26T23:46:30.527Z,23.50
2017-08-26T23:48:58.033Z,23.60
2017-08-26T23:51:26.277Z,21.10
2017-08-26T23:53:53.753Z,21.20
2017-08-26T23:56:21.250Z,18.80
2017-08-26T23:58:48.733Z,32.47
